Time;durP1;ratioP1;P1;durP2;ratioP2;P2;SDS_P1;SDS_P2;PMS_P1;PMS_P2;Temp;Humidity;BMP_temperature;BMP_pressure;BME280_temperature;BME280_humidity;BME280_pressure;Samples;Min_cycle;Max_cycle;Signal;HPM_P1;HPM_P2
2020/12/03 00:00:54;;;;;;;39.73;25.82;;;;;;;-2.62;77.97;98825.39;1862038;76;20868;-70
2020/12/03 00:03:29;;;;;;;37.53;23.50;;;;;;;-2.63;77.95;98819.72;1862032;77;20994;-70
2020/12/03 00:06:22;;;;;;;35.83;24.37;;;;;;;-2.62;77.96;98818.81;1862191;77;21464;-69
2020/12/03 00:09:00;;;;;;;33.77;24.43;;;;;;;-2.64;77.88;98817.97;1862328;77;21641;-70
2020/12/03 00:11:45;;;;;;;36.08;23.98;;;;;;;-2.59;77.79;98817.93;1842247;77;27949;-71
2020/12/03 00:14:14;;;;;;;38.98;25.75;;;;;;;-2.62;77.72;98817.50;1816427;79;20932;-70
2020/12/03 00:16:42;;;;;;;39.40;24.47;;;;;;;-2.62;77.75;98821.91;1817612;79;21407;-70
2020/12/03 00:19:11;;;;;;;39.23;25.27;;;;;;;-2.62;77.77;98822.77;1817567;79;20968;-71
2020/12/03 00:21:48;;;;;;;39.90;25.10;;;;;;;-2.62;77.87;98823.22;1817517;79;20991;-71
2020/12/03 00:24:20;;;;;;;38.25;25.77;;;;;;;-2.64;77.88;98827.63;1817599;79;21339;-70
2020/12/03 00:26:48;;;;;;;35.78;23.83;;;;;;;-2.65;77.89;98828.08;1817832;79;20956;-70
2020/12/03 00:29:18;;;;;;;39.95;25.35;;;;;;;-2.67;77.82;98828.52;1817587;79;21245;-71
2020/12/03 00:31:46;;;;;;;37.15;25.05;;;;;;;-2.67;77.72;98819.77;1817492;79;20920;-70
2020/12/03 00:34:14;;;;;;;38.00;24.23;;;;;;;-2.68;77.72;98816.28;1817683;79;21433;-70
2020/12/03 00:36:42;;;;;;;36.45;23.42;;;;;;;-2.67;77.72;98815.37;1784142;79;20905;-69
2020/12/03 00:39:13;;;;;;;40.50;26.00;;;;;;;-2.67;77.71;98816.69;1817659;79;21353;-70
2020/12/03 00:41:49;;;;;;;39.05;24.87;;;;;;;-2.65;77.74;98814.04;1817578;79;21314;-70
2020/12/03 00:44:17;;;;;;;30.30;20.92;;;;;;;-2.64;77.77;98812.71;1785601;79;20963;-71
2020/12/03 00:46:46;;;;;;;33.98;23.75;;;;;;;-2.64;77.78;98806.14;1817544;79;20948;-70
2020/12/03 00:49:15;;;;;;;37.98;25.30;;;;;;;-2.64;77.86;98802.19;1817514;79;20905;-70
2020/12/03 00:51:46;;;;;;;35.80;24.25;;;;;;;-2.66;77.81;98803.97;1817545;79;20900;-70
2020/12/03 00:54:14;;;;;;;38.90;24.10;;;;;;;-2.66;77.87;98797.41;1817637;79;21191;-70
2020/12/03 00:56:41;;;;;;;38.73;23.87;;;;;;;-2.65;77.75;98800.47;1817533;79;20920;-70
2020/12/03 00:59:09;;;;;;;34.48;22.67;;;;;;;-2.65;77.68;98805.73;1783708;79;20967;-70
2020/12/03 01:01:37;;;;;;;33.70;23.77;;;;;;;-2.66;77.70;98805.29;1817492;78;21043;-71
2020/12/03 01:04:06;;;;;;;38.48;24.52;;;;;;;-2.65;77.74;98805.73;1817684;79;20889;-70
2020/12/03 01:06:36;;;;;;;36.38;25.37;;;;;;;-2.66;77.81;98807.92;1817633;79;20920;-70
2020/12/03 01:09:06;;;;;;;35.88;24.60;;;;;;;-2.66;77.91;98807.92;1817606;79;21007;-70
2020/12/03 01:11:34;;;;;;;40.08;24.95;;;;;;;-2.67;78.04;98804.84;1815670;79;20900;-71
2020/12/03 01:14:01;;;;;;;35.88;23.85;;;;;;;-2.66;78.14;98798.72;1815552;79;20960;-70
2020/12/03 01:16:29;;;;;;;35.17;23.45;;;;;;;-2.63;78.04;98800.00;1815535;79;20995;-71
2020/12/03 01:18:57;;;;;;;35.90;24.05;;;;;;;-2.63;77.95;98798.69;1815515;79;21801;-71
2020/12/03 01:21:24;;;;;;;37.95;24.12;;;;;;;-2.61;77.98;98806.56;1815248;79;20928;-70
2020/12/03 01:23:52;;;;;;;36.42;24.57;;;;;;;-2.61;77.87;98793.41;1814973;79;20901;-71
2020/12/03 01:26:20;;;;;;;37.63;24.85;;;;;;;-2.60;77.83;98789.45;1814935;79;20982;-70
2020/12/03 01:28:47;;;;;;;40.00;24.67;;;;;;;-2.60;77.77;98776.72;1814958;79;21035;-71
2020/12/03 01:31:15;;;;;;;34.25;23.67;;;;;;;-2.59;77.81;98789.86;1814873;79;21184;-70
2020/12/03 01:33:42;;;;;;;41.33;25.48;;;;;;;-2.61;77.74;98781.13;1815048;79;21018;-70
2020/12/03 01:36:13;;;;;;;38.65;24.70;;;;;;;-2.62;77.82;98784.62;1814916;79;20964;-71
2020/12/03 01:38:42;;;;;;;37.73;24.23;;;;;;;-2.62;77.71;98787.26;1814958;79;20976;-70
2020/12/03 01:41:09;;;;;;;40.35;25.88;;;;;;;-2.60;77.82;98779.36;1814951;79;21394;-70
2020/12/03 01:43:42;;;;;;;37.83;23.27;;;;;;;-2.60;77.82;98774.98;1814968;79;21259;-71
2020/12/03 01:46:09;;;;;;;39.42;25.37;;;;;;;-2.60;77.82;98771.05;1814972;78;21477;-72
2020/12/03 01:48:53;;;;;;;40.23;24.72;;;;;;;-2.60;77.87;98763.16;1814998;79;21366;-70
2020/12/03 01:51:25;;;;;;;41.95;24.77;;;;;;;-2.61;77.75;98764.03;1798756;79;20983;-69
2020/12/03 01:53:58;;;;;;;34.33;25.05;;;;;;;-2.60;77.73;98762.27;1815026;79;20896;-70
2020/12/03 01:57:06;;;;;;;32.88;22.45;;;;;;;-2.62;77.68;98759.64;1814951;79;21255;-70
2020/12/03 01:59:44;;;;;;;36.17;24.55;;;;;;;-2.59;77.68;98758.30;1814883;79;20924;-70
2020/12/03 02:02:15;;;;;;;38.33;25.15;;;;;;;-2.62;77.73;98754.39;1814945;79;20928;-69
2020/12/03 02:05:06;;;;;;;36.33;24.07;;;;;;;-2.61;77.74;98767.11;1814926;79;20908;-69
2020/12/03 02:07:35;;;;;;;33.92;22.60;;;;;;;-2.61;77.68;98751.34;1814963;78;20904;-70
2020/12/03 02:10:05;;;;;;;39.08;26.93;;;;;;;-2.61;77.62;98752.20;1816118;78;21352;-70
2020/12/03 02:12:34;;;;;;;35.10;23.80;;;;;;;-2.63;77.58;98755.30;1828777;78;20927;-70
2020/12/03 02:15:05;;;;;;;37.53;24.70;;;;;;;-2.62;77.69;98757.02;1828789;78;20903;-70
2020/12/03 02:17:32;;;;;;;34.63;23.98;;;;;;;-2.64;77.57;98750.91;1828772;78;20927;-70
2020/12/03 02:20:15;;;;;;;38.35;25.55;;;;;;;-2.64;77.55;98749.59;1828831;78;20896;-70
2020/12/03 02:22:43;;;;;;;39.08;24.43;;;;;;;-2.66;77.55;98742.17;1828835;78;21270;-70
2020/12/03 02:25:11;;;;;;;36.85;25.00;;;;;;;-2.66;77.58;98749.20;1828650;78;20975;-70
2020/12/03 02:27:39;;;;;;;41.25;25.10;;;;;;;-2.68;77.74;98751.85;1828776;78;20956;-71
2020/12/03 02:30:09;;;;;;;39.60;25.50;;;;;;;-2.68;77.82;98755.80;1828807;78;21567;-71
2020/12/03 02:32:37;;;;;;;39.85;24.25;;;;;;;-2.67;77.81;98761.91;1828754;78;21011;-71
2020/12/03 02:35:07;;;;;;;45.95;26.65;;;;;;;-2.66;77.86;98763.67;1828755;78;21799;-70
2020/12/03 02:37:34;;;;;;;37.35;24.47;;;;;;;-2.70;77.85;98753.60;1828808;78;20911;-70
2020/12/03 02:40:04;;;;;;;43.55;26.95;;;;;;;-2.72;77.92;98743.55;1828759;78;20919;-70
2020/12/03 02:42:31;;;;;;;39.45;24.40;;;;;;;-2.72;77.86;98739.61;1828766;78;20975;-70
2020/12/03 02:45:00;;;;;;;38.23;24.85;;;;;;;-2.70;77.89;98740.45;1828816;78;20967;-70
2020/12/03 02:47:29;;;;;;;33.25;23.80;;;;;;;-2.72;77.71;98735.66;1828762;78;21354;-71
2020/12/03 02:49:56;;;;;;;36.60;24.27;;;;;;;-2.70;77.70;98732.56;1828591;78;21002;-71
2020/12/03 02:52:24;;;;;;;34.50;22.82;;;;;;;-2.71;77.69;98728.22;1796810;78;21480;-70
2020/12/03 02:54:53;;;;;;;39.55;25.62;;;;;;;-2.72;77.80;98740.92;1828802;78;20868;-70
2020/12/03 02:57:21;;;;;;;41.98;24.63;;;;;;;-2.74;77.85;98733.05;1828752;78;20963;-70
2020/12/03 02:59:50;;;;;;;36.90;23.65;;;;;;;-2.74;78.01;98735.68;1828836;78;22376;-70
2020/12/03 03:02:17;;;;;;;39.70;24.20;;;;;;;-2.74;77.98;98736.14;1828608;78;20967;-72
2020/12/03 03:04:47;;;;;;;39.03;23.45;;;;;;;-2.74;78.03;98736.14;1828769;78;20931;-70
2020/12/03 03:07:14;;;;;;;40.45;24.92;;;;;;;-2.75;78.01;98735.70;1828723;78;20903;-70
2020/12/03 03:09:43;;;;;;;34.73;22.10;;;;;;;-2.76;78.03;98743.14;1828736;78;20923;-70
2020/12/03 03:12:10;;;;;;;41.48;25.17;;;;;;;-2.74;77.92;98751.91;1817015;78;21341;-70
2020/12/03 03:14:39;;;;;;;39.27;23.27;;;;;;;-2.74;77.87;98737.45;1814761;78;20966;-70
2020/12/03 03:17:07;;;;;;;41.35;25.20;;;;;;;-2.75;77.96;98745.77;1814801;79;20967;-70
2020/12/03 03:19:34;;;;;;;38.95;24.70;;;;;;;-2.75;77.89;98735.70;1814859;79;20908;-70
2020/12/03 03:22:02;;;;;;;35.25;24.50;;;;;;;-2.76;77.79;98736.58;1814883;79;20896;-70
2020/12/03 03:24:30;;;;;;;42.03;25.50;;;;;;;-2.76;77.73;98726.05;1814929;79;21445;-69
2020/12/03 03:26:57;;;;;;;35.78;23.87;;;;;;;-2.76;77.70;98719.48;1814723;78;21031;-70
2020/12/03 03:29:27;;;;;;;38.23;24.20;;;;;;;-2.77;77.63;98715.13;1814827;79;21023;-70
2020/12/03 03:31:55;;;;;;;37.95;26.42;;;;;;;-2.76;77.63;98707.65;1814770;79;20865;-71
2020/12/03 03:34:22;;;;;;;38.33;24.82;;;;;;;-2.78;77.62;98708.98;1814899;79;20927;-70
2020/12/03 03:36:50;;;;;;;39.40;24.57;;;;;;;-2.78;77.50;98700.23;1814868;79;21134;-70
2020/12/03 03:39:20;;;;;;;43.00;25.85;;;;;;;-2.78;77.66;98697.16;1814791;79;21206;-71
2020/12/03 03:41:47;;;;;;;37.23;25.52;;;;;;;-2.80;77.79;98696.30;1814853;79;20999;-70
2020/12/03 03:44:16;;;;;;;36.77;24.57;;;;;;;-2.78;77.80;98689.27;1814807;79;21350;-70
2020/12/03 03:46:43;;;;;;;37.53;23.95;;;;;;;-2.79;77.71;98684.02;1814881;79;20908;-70
2020/12/03 03:49:11;;;;;;;37.10;25.20;;;;;;;-2.81;77.72;98680.55;1814863;79;21897;-70
2020/12/03 03:51:38;;;;;;;39.78;25.05;;;;;;;-2.81;77.68;98683.18;1814684;79;20987;-71
2020/12/03 03:54:06;;;;;;;36.23;22.87;;;;;;;-2.81;77.66;98683.18;1814891;79;20924;-70
2020/12/03 03:56:33;;;;;;;37.10;24.40;;;;;;;-2.84;77.75;98681.44;1814789;79;20932;-70
2020/12/03 03:59:02;;;;;;;40.17;24.55;;;;;;;-2.84;77.82;98684.52;1814903;79;21402;-70
2020/12/03 04:01:29;;;;;;;34.88;23.92;;;;;;;-2.86;77.90;98679.73;1814772;79;21349;-71
2020/12/03 04:03:56;;;;;;;38.30;25.30;;;;;;;-2.86;77.98;98683.68;1814785;78;20920;-70
2020/12/03 04:06:25;;;;;;;44.73;26.93;;;;;;;-2.85;77.94;98680.14;1814854;78;20932;-71
2020/12/03 04:08:52;;;;;;;42.00;24.95;;;;;;;-2.87;78.07;98672.73;1814740;79;20901;-71
2020/12/03 04:11:20;;;;;;;39.40;26.52;;;;;;;-2.87;78.02;98672.27;1779464;79;21510;-71
2020/12/03 04:13:47;;;;;;;36.70;25.40;;;;;;;-2.85;77.99;98682.77;1803748;79;21281;-71
2020/12/03 04:16:15;;;;;;;41.55;25.90;;;;;;;-2.87;77.96;98684.10;1803661;79;20922;-70
2020/12/03 04:18:42;;;;;;;41.83;25.92;;;;;;;-2.86;77.88;98673.16;1803733;79;20909;-70
2020/12/03 04:21:10;;;;;;;40.15;25.92;;;;;;;-2.86;77.85;98673.16;1803646;79;21422;-71
2020/12/03 04:23:37;;;;;;;37.55;24.45;;;;;;;-2.88;77.86;98676.27;1803820;79;21567;-71
2020/12/03 04:26:04;;;;;;;38.35;24.10;;;;;;;-2.87;77.67;98676.67;1803836;79;22662;-70
2020/12/03 04:28:33;;;;;;;40.83;25.88;;;;;;;-2.87;77.60;98680.16;1803640;79;20925;-71
2020/12/03 04:31:01;;;;;;;40.17;24.75;;;;;;;-2.89;77.59;98685.02;1803743;79;20924;-70
2020/12/03 04:33:29;;;;;;;38.58;25.97;;;;;;;-2.91;77.71;98689.84;1803703;79;20992;-71
2020/12/03 04:35:57;;;;;;;38.63;25.00;;;;;;;-2.92;77.71;98688.55;1803665;79;21353;-70
2020/12/03 04:38:27;;;;;;;37.65;25.20;;;;;;;-2.92;77.72;98688.13;1803723;79;21192;-70
2020/12/03 04:40:54;;;;;;;41.15;25.65;;;;;;;-2.92;77.68;98699.06;1803581;79;20921;-70
2020/12/03 04:43:35;;;;;;;48.55;28.85;;;;;;;-2.92;77.57;98689.44;1748644;79;21299;-71
2020/12/03 04:46:26;;;;;;;38.65;23.38;;;;;;;-2.91;77.54;98692.92;1801673;79;21339;-70
2020/12/03 04:49:08;;;;;;;43.63;26.15;;;;;;;-2.92;77.58;98683.28;1803778;79;21355;-70
2020/12/03 04:52:34;;;;;;;46.28;27.70;;;;;;;-2.94;77.63;98674.56;1803734;79;22016;-70
2020/12/03 04:55:30;;;;;;;39.33;23.75;;;;;;;-2.96;77.66;98679.83;1803714;79;20980;-69
2020/12/03 04:58:19;;;;;;;43.42;25.35;;;;;;;-3.00;77.62;98680.73;1803868;79;20996;-70
2020/12/03 05:00:53;;;;;;;34.65;24.55;;;;;;;-3.01;77.77;98691.27;1803580;79;21019;-71
2020/12/03 05:03:28;;;;;;;44.20;26.87;;;;;;;-3.05;77.87;98689.12;1803833;79;20972;-70
2020/12/03 05:06:24;;;;;;;48.83;27.58;;;;;;;-3.08;77.85;98686.52;1803870;79;21360;-70
2020/12/03 05:09:03;;;;;;;41.95;25.95;;;;;;;-3.09;77.91;98696.59;1803836;79;20877;-71
2020/12/03 05:11:55;;;;;;;43.28;25.35;;;;;;;-3.12;78.00;98697.52;1804251;78;21334;-71
2020/12/03 05:14:40;;;;;;;44.13;25.52;;;;;;;-3.14;77.85;98689.20;1805852;79;20929;-71
2020/12/03 05:17:39;;;;;;;42.38;25.77;;;;;;;-3.14;77.88;98682.63;1805789;79;20960;-71
2020/12/03 05:20:30;;;;;;;40.92;24.47;;;;;;;-3.17;77.87;98686.61;1803796;79;21362;-71
2020/12/03 05:23:17;;;;;;;37.15;23.47;;;;;;;-3.18;77.89;98701.96;1805772;79;21015;-71
2020/12/03 05:25:47;;;;;;;38.63;23.05;;;;;;;-3.20;77.91;98699.77;1805870;79;20920;-71
2020/12/03 05:28:51;;;;;;;35.50;22.93;;;;;;;-3.20;77.96;98691.89;1805906;79;20873;-71
2020/12/03 05:31:31;;;;;;;40.67;25.45;;;;;;;-3.22;77.74;98692.36;1805808;79;20987;-72
2020/12/03 05:34:20;;;;;;;41.10;24.35;;;;;;;-3.24;77.65;98696.77;1805863;79;21421;-71
2020/12/03 05:37:04;;;;;;;37.63;23.38;;;;;;;-3.26;77.73;98699.41;1805808;79;21457;-73
2020/12/03 05:39:46;;;;;;;34.33;22.00;;;;;;;-3.25;77.81;98689.75;1781765;79;20912;-70
2020/12/03 05:42:18;;;;;;;39.70;22.22;;;;;;;-3.30;77.68;98681.46;1724371;79;21429;-70
2020/12/03 05:44:55;;;;;;;;;;;;;;;-3.31;77.59;98685.41;1808555;79;21027;-70
2020/12/03 05:47:32;;;;;;;39.25;25.08;;;;;;;-3.31;77.62;98695.92;1782229;79;21341;-71
2020/12/03 05:50:10;;;;;;;39.88;24.32;;;;;;;-3.33;77.38;98689.81;1805760;79;20968;-71
2020/12/03 05:52:37;;;;;;;36.60;22.02;;;;;;;-3.35;77.33;98692.45;1805859;79;21406;-71
2020/12/03 05:55:12;;;;;;;35.98;23.85;;;;;;;-3.36;77.08;98681.55;1805749;79;21358;-71
2020/12/03 05:57:44;;;;;;;34.75;22.27;;;;;;;-3.39;77.22;98680.25;1806064;79;21418;-71
2020/12/03 06:00:16;;;;;;;;;;;;;;;-3.40;77.39;98688.15;1808500;79;21414;-71
2020/12/03 06:03:15;;;;;;;41.98;23.90;;;;;;;-3.43;77.32;98681.16;1805779;79;20190;-71
2020/12/03 06:06:17;;;;;;;38.08;22.27;;;;;;;-3.47;77.36;98679.00;1805887;79;20916;-71
2020/12/03 06:09:05;;;;;;;39.42;23.62;;;;;;;-3.47;77.32;98676.80;1805764;79;20944;-71
2020/12/03 06:12:05;;;;;;;36.73;21.52;;;;;;;-3.48;77.27;98685.59;1805790;78;20913;-69
2020/12/03 06:15:06;;;;;;;41.55;23.95;;;;;;;-3.50;77.37;98684.70;1805791;79;21872;-71
2020/12/03 06:18:11;;;;;;;41.00;23.52;;;;;;;-3.51;77.40;98693.48;1805648;79;20916;-71
2020/12/03 06:21:13;;;;;;;40.05;22.93;;;;;;;-3.51;77.50;98676.42;1805027;79;20948;-71
2020/12/03 06:24:10;;;;;;;38.38;24.37;;;;;;;-3.53;77.52;98675.53;1805638;79;21603;-70
2020/12/03 06:26:53;;;;;;;36.45;23.20;;;;;;;-3.53;77.56;98668.97;1805840;79;20921;-72
2020/12/03 06:29:44;;;;;;;42.83;24.02;;;;;;;-3.53;77.51;98668.97;1805870;79;22248;-70
2020/12/03 06:32:34;;;;;;;37.63;22.37;;;;;;;-3.53;77.50;98667.66;1805746;79;21007;-71
2020/12/03 06:35:21;;;;;;;33.13;21.00;;;;;;;-3.53;77.38;98668.55;1805833;79;20988;-71
2020/12/03 06:38:28;;;;;;;34.60;22.62;;;;;;;-3.53;77.28;98670.28;1789453;79;20984;-71
2020/12/03 06:41:38;;;;;;;40.28;22.82;;;;;;;-3.53;77.30;98674.22;1805905;79;20866;-71
2020/12/03 06:44:30;;;;;;;44.38;23.85;;;;;;;-3.53;77.43;98672.49;1805201;79;21035;-72
2020/12/03 06:47:35;;;;;;;46.48;26.12;;;;;;;-3.50;77.48;98676.83;1805831;79;21529;-72
2020/12/03 06:50:30;;;;;;;37.75;22.55;;;;;;;-3.52;77.43;98669.41;1748418;79;20893;-70
2020/12/03 06:53:39;;;;;;;41.15;22.98;;;;;;;-3.51;77.51;98669.40;1771768;79;21511;-70
2020/12/03 06:56:33;;;;;;;51.90;26.95;;;;;;;-3.48;77.44;98668.52;1805808;79;20920;-71
2020/12/03 06:59:44;;;;;;;42.00;24.67;;;;;;;-3.47;77.53;98672.44;1804953;79;21349;-73
2020/12/03 07:03:00;;;;;;;45.67;24.18;;;;;;;-3.46;77.65;98664.11;1805098;79;21537;-71
2020/12/03 07:06:08;;;;;;;37.48;22.90;;;;;;;-3.44;77.68;98664.95;1804977;79;21004;-71
2020/12/03 07:09:17;;;;;;;39.03;21.20;;;;;;;-3.40;77.43;98661.44;1805098;79;20941;-72
2020/12/03 07:12:49;;;;;;;36.48;21.17;;;;;;;-3.34;77.40;98658.75;1841661;78;28649;-71
2020/12/03 07:15:42;;;;;;;31.17;21.05;;;;;;;-3.36;77.23;98660.53;1816944;79;21540;-70
2020/12/03 07:18:46;;;;;;;36.98;20.95;;;;;;;-3.34;77.29;98661.80;1817062;79;21421;-70
2020/12/03 07:21:38;;;;;;;34.60;21.93;;;;;;;-3.32;77.41;98666.62;1816860;79;20991;-72
2020/12/03 07:24:28;;;;;;;34.27;21.35;;;;;;;-3.28;77.40;98670.94;1816967;79;21413;-72
2020/12/03 07:27:52;;;;;;;39.03;19.75;;;;;;;-3.26;77.28;98667.87;1816901;78;21003;-75
2020/12/03 07:30:42;;;;;;;40.70;23.00;;;;;;;-3.21;77.27;98673.95;1817105;78;21409;-75
2020/12/03 07:33:18;;;;;;;35.98;21.17;;;;;;;-3.17;76.96;98656.39;1816977;79;21375;-75
2020/12/03 07:36:36;;;;;;;32.65;20.68;;;;;;;-3.15;76.63;98655.95;1816418;79;20986;-80
2020/12/03 07:39:13;;;;;;;56.40;24.00;;;;;;;-3.15;76.35;98654.64;1817044;79;21003;-80
2020/12/03 07:42:11;;;;;;;33.58;20.40;;;;;;;-3.09;76.39;98661.12;1817005;79;21564;-76
2020/12/03 07:44:53;;;;;;;34.90;21.77;;;;;;;-3.07;76.33;98673.82;1816765;79;20928;-77
2020/12/03 07:47:35;;;;;;;35.68;20.85;;;;;;;-3.05;76.18;98661.52;1816595;79;22519;-75
2020/12/03 07:50:23;;;;;;;37.78;21.25;;;;;;;-3.02;76.08;98665.89;1816787;79;20999;-77
2020/12/03 07:53:22;;;;;;;32.73;20.12;;;;;;;-3.02;76.10;98661.50;1816811;79;21464;-75
2020/12/03 07:55:52;;;;;;;30.40;18.10;;;;;;;-3.03;76.09;98654.48;1816078;79;21004;-76
2020/12/03 07:58:36;;;;;;;40.17;21.65;;;;;;;-3.01;76.04;98645.27;1816139;79;20952;-77
2020/12/03 08:01:35;;;;;;;37.73;21.90;;;;;;;-2.99;76.10;98648.32;1816691;79;21184;-74
2020/12/03 08:04:14;;;;;;;36.25;21.82;;;;;;;-2.96;76.02;98652.23;1816786;79;21512;-75
2020/12/03 08:06:42;;;;;;;31.50;19.77;;;;;;;-2.91;75.91;98649.55;1816969;79;20987;-73
2020/12/03 08:09:22;;;;;;;36.10;22.17;;;;;;;-2.91;75.63;98654.36;1758231;79;21523;-74
2020/12/03 08:12:03;;;;;;;34.88;20.75;;;;;;;-2.88;75.50;98653.92;1807498;79;20983;-75
2020/12/03 08:14:40;;;;;;;33.42;21.02;;;;;;;-2.83;75.56;98649.47;1805938;79;22281;-74
2020/12/03 08:17:24;;;;;;;32.23;19.67;;;;;;;-2.81;75.38;98644.61;1805074;79;21572;-75
2020/12/03 08:20:12;;;;;;;34.70;21.20;;;;;;;-2.77;75.31;98633.62;1805845;79;20968;-74
2020/12/03 08:22:48;;;;;;;30.92;20.65;;;;;;;-2.72;75.29;98635.75;1804741;79;21004;-74
2020/12/03 08:25:24;;;;;;;36.95;22.02;;;;;;;-2.67;75.32;98632.61;1804633;79;21019;-78
2020/12/03 08:28:02;;;;;;;31.97;20.77;;;;;;;-2.63;75.21;98630.38;1804943;79;22281;-75
2020/12/03 08:30:34;;;;;;;34.75;21.70;;;;;;;-2.58;75.00;98629.87;1805365;79;21565;-74
2020/12/03 08:33:18;;;;;;;38.58;22.48;;;;;;;-2.53;74.96;98627.64;1805161;79;20960;-76
2020/12/03 08:35:57;;;;;;;35.58;21.65;;;;;;;-2.49;74.75;98623.64;1805245;79;21498;-76
2020/12/03 08:38:31;;;;;;;35.40;20.97;;;;;;;-2.43;74.97;98625.30;1805295;79;21316;-77
2020/12/03 08:41:19;;;;;;;;;;;;;;;;;;;;;
2020/12/03 08:43:41;;;;;;;30.50;18.90;;;;;;;-2.34;74.46;98618.59;1796492;79;21540;-79
2020/12/03 08:46:15;;;;;;;31.02;20.05;;;;;;;-2.29;74.31;98610.64;1804811;79;21113;-77
2020/12/03 08:48:41;;;;;;;34.92;21.82;;;;;;;-2.27;74.14;98612.38;1804558;79;20987;-76
2020/12/03 08:51:13;;;;;;;29.67;19.82;;;;;;;-2.24;74.04;98606.17;1805228;79;20972;-76
2020/12/03 08:53:45;;;;;;;39.50;19.80;;;;;;;-2.23;73.70;98612.73;1805230;79;21187;-76
2020/12/03 08:56:35;;;;;;;35.55;21.95;;;;;;;-2.17;73.64;98600.41;1805016;79;20984;-79
2020/12/03 08:59:18;;;;;;;36.90;22.37;;;;;;;-2.13;73.57;98592.86;1805252;79;20996;-76
2020/12/03 09:01:54;;;;;;;36.55;22.37;;;;;;;-2.09;73.70;98597.20;1805194;79;21512;-77
2020/12/03 09:04:25;;;;;;;33.88;21.82;;;;;;;-2.06;73.33;98593.20;1780838;79;21541;-79
2020/12/03 09:06:55;;;;;;;34.98;20.68;;;;;;;-2.02;73.54;98586.98;1805274;79;21754;-79
2020/12/03 09:09:25;;;;;;;31.90;21.33;;;;;;;-1.99;73.38;98582.98;1805029;79;20984;-78
2020/12/03 09:11:52;;;;;;;29.23;19.65;;;;;;;-1.96;72.95;98576.36;1807899;79;20991;-78
2020/12/03 09:14:20;;;;;;;37.53;20.97;;;;;;;-1.92;72.94;98576.74;1814315;79;20948;-78
2020/12/03 09:16:51;;;;;;;28.15;18.30;;;;;;;-1.89;73.07;98576.70;1814288;79;20972;-79
2020/12/03 09:19:25;;;;;;;33.15;20.52;;;;;;;-1.86;72.73;98572.70;1814382;79;21806;-78
2020/12/03 09:21:53;;;;;;;;;;;;;;;-1.83;72.50;98573.96;1816609;79;21561;-79
2020/12/03 09:24:25;;;;;;;30.02;20.12;;;;;;;-1.78;72.58;98567.73;1814143;79;20160;-81
2020/12/03 09:26:57;;;;;;;30.00;21.77;;;;;;;-1.79;72.31;98564.23;1814331;79;20944;-82
2020/12/03 09:29:25;;;;;;;29.60;19.87;;;;;;;-1.76;72.31;98559.38;1814377;78;20995;-82
2020/12/03 09:32:04;;;;;;;30.10;20.02;;;;;;;-1.75;72.31;98546.61;1810409;79;22233;-79
2020/12/03 09:34:34;;;;;;;26.50;19.75;;;;;;;-1.71;72.66;98543.90;1814178;79;20992;-82
2020/12/03 09:37:03;;;;;;;32.15;19.00;;;;;;;-1.67;72.35;98542.08;1814218;79;21015;-77
2020/12/03 09:39:34;;;;;;;28.30;18.62;;;;;;;-1.63;72.47;98531.92;1782535;79;20960;-79
2020/12/03 09:42:04;;;;;;;26.60;18.02;;;;;;;-1.57;72.38;98531.81;1814443;79;21004;-81
2020/12/03 09:44:34;;;;;;;25.15;17.65;;;;;;;-1.54;72.49;98537.02;1814443;79;21526;-81
2020/12/03 09:47:12;;;;;;;56.15;19.27;;;;;;;-1.50;72.34;98533.45;1814193;79;21327;-79
2020/12/03 09:49:43;;;;;;;38.75;18.25;;;;;;;-1.43;72.39;98525.39;1813408;79;21433;-79
2020/12/03 09:52:12;;;;;;;32.78;20.65;;;;;;;-1.37;72.57;98518.27;1814372;79;21480;-81
2020/12/03 09:54:40;;;;;;;25.65;15.80;;;;;;;-1.34;72.80;98526.11;1814177;79;20916;-79
2020/12/03 09:57:10;;;;;;;28.65;17.23;;;;;;;-1.31;72.47;98523.84;1813857;78;22661;-82
2020/12/03 09:59:39;;;;;;;27.02;16.30;;;;;;;-1.33;72.49;98515.11;1814332;79;21584;-81
2020/12/03 10:02:14;;;;;;;26.33;17.75;;;;;;;-1.30;72.37;98512.42;1812412;79;21019;-83
2020/12/03 10:05:00;;;;;;;25.57;16.50;;;;;;;-1.30;72.10;98517.69;1813970;79;20999;-77
2020/12/03 10:07:58;;;;;;;25.30;16.70;;;;;;;-1.25;72.31;98518.92;1793526;79;21588;-79
2020/12/03 10:11:05;;;;;;;25.27;15.85;;;;;;;-1.22;72.24;98510.49;1813213;79;21191;-80
2020/12/03 10:14:20;;;;;;;26.85;17.30;;;;;;;-1.17;72.06;98506.45;1840387;77;28636;-81
2020/12/03 10:16:49;;;;;;;22.17;16.05;;;;;;;-1.18;72.01;98508.23;1816964;79;20991;-79
2020/12/03 10:19:17;;;;;;;27.77;17.15;;;;;;;-1.17;72.33;98500.72;1816983;79;21193;-81
2020/12/03 10:21:51;;;;;;;27.70;17.32;;;;;;;-1.16;72.60;98489.28;1816599;79;21433;-77
2020/12/03 10:24:25;;;;;;;;;;;;;;;-1.12;72.62;98492.72;1819694;79;20974;-78
2020/12/03 10:27:22;;;;;;;30.52;17.82;;;;;;;-1.12;72.73;98480.42;1816882;79;20156;-80
2020/12/03 10:30:07;;;;;;;29.32;17.30;;;;;;;-1.08;72.58;98479.05;1816964;79;20960;-77
2020/12/03 10:32:46;;;;;;;30.05;17.35;;;;;;;-1.05;72.41;98473.70;1817003;79;21433;-74
2020/12/03 10:35:14;;;;;;;35.15;20.70;;;;;;;-1.01;72.55;98464.39;1782980;79;21512;-74
2020/12/03 10:37:54;;;;;;;26.20;16.93;;;;;;;-0.98;72.73;98472.23;1817084;79;21441;-78
2020/12/03 10:40:22;;;;;;;25.27;18.05;;;;;;;-0.97;72.83;98475.27;1816888;79;21022;-78
2020/12/03 10:43:17;;;;;;;34.55;20.32;;;;;;;-0.93;73.07;98469.47;1816695;78;20971;-78
2020/12/03 10:45:47;;;;;;;31.07;19.52;;;;;;;-0.88;72.71;98461.45;1816967;78;20976;-76
2020/12/03 10:48:26;;;;;;;27.00;18.12;;;;;;;-0.83;72.71;98457.83;1816821;79;21568;-79
2020/12/03 10:51:08;;;;;;;29.57;17.85;;;;;;;-0.80;72.65;98448.98;1816620;79;21007;-80
2020/12/03 10:53:37;;;;;;;29.82;18.07;;;;;;;-0.77;72.60;98446.28;1816856;79;21023;-80
2020/12/03 10:56:12;;;;;;;25.20;18.85;;;;;;;-0.74;72.67;98452.81;1817002;79;21030;-78
2020/12/03 10:59:19;;;;;;;;;;;;;;;-0.72;72.31;98442.22;1819012;79;21485;-79
2020/12/03 11:01:42;;;;;;;23.35;15.95;;;;;;;-0.71;72.04;98441.30;1805448;79;20204;-80
2020/12/03 11:04:10;;;;;;;25.68;17.10;;;;;;;-0.72;72.13;98436.48;1733544;82;21009;-77
2020/12/03 11:06:39;;;;;;;28.10;19.15;;;;;;;-0.73;72.37;98437.38;1732860;82;21009;-81
2020/12/03 11:09:12;;;;;;;24.65;16.20;;;;;;;-0.74;72.52;98444.89;1732123;82;21072;-80
2020/12/03 11:11:41;;;;;;;27.67;16.75;;;;;;;-0.73;72.55;98434.73;1705246;82;21000;-78
2020/12/03 11:14:11;;;;;;;27.95;16.95;;;;;;;-0.76;72.68;98440.08;1752521;81;20998;-82
2020/12/03 11:17:09;;;;;;;26.97;17.02;;;;;;;-0.75;72.53;98441.83;1723147;83;20970;-81
2020/12/03 11:19:39;;;;;;;27.60;16.85;;;;;;;-0.70;72.50;98439.09;1721284;83;21038;-79
2020/12/03 11:22:40;;;;;;;26.75;17.82;;;;;;;-0.66;72.61;98448.64;1702705;83;20978;-79
2020/12/03 11:25:13;;;;;;;27.45;15.20;;;;;;;-0.65;72.68;98424.87;1705253;83;21152;-82
2020/12/03 11:27:42;;;;;;;29.95;17.30;;;;;;;-0.61;72.64;98433.59;1722175;82;21009;-84
2020/12/03 11:30:20;;;;;;;26.05;17.60;;;;;;;-0.60;72.77;98426.97;1721359;83;21096;-82
2020/12/03 11:32:52;;;;;;;26.25;17.30;;;;;;;-0.60;72.58;98410.25;1722381;83;20985;-82
2020/12/03 11:35:29;;;;;;;18.05;13.18;;;;;;;-0.58;72.50;98425.61;1722645;83;21108;-78
2020/12/03 11:38:02;;;;;;;28.42;17.92;;;;;;;-0.59;72.33;98418.59;1722519;82;21429;-82
2020/12/03 11:40:40;;;;;;;26.70;16.40;;;;;;;-0.61;72.58;98411.17;1722105;83;21081;-82
2020/12/03 11:43:18;;;;;;;29.95;18.10;;;;;;;-0.63;72.77;98404.61;1721840;82;21036;-81
2020/12/03 11:48:19;;;;;;;32.63;20.08;;;;;;;-0.61;72.91;98384.80;1722415;82;21001;-81
2020/12/03 11:50:37;;;;;;;25.23;15.83;;;;;;;-0.61;73.07;98376.88;1719749;83;22435;-83
2020/12/03 11:53:06;;;;;;;29.15;18.07;;;;;;;-0.64;72.63;98370.36;1722207;83;21589;-84
2020/12/03 11:55:39;;;;;;;23.75;17.15;;;;;;;-0.62;72.83;98386.55;1721968;82;21089;-83
2020/12/03 11:58:08;;;;;;;35.05;23.80;;;;;;;-0.62;72.80;98384.37;1722127;82;20942;-82
2020/12/03 12:00:36;;;;;;;29.48;19.00;;;;;;;-0.63;73.13;98382.20;1722262;83;21041;-82
2020/12/03 12:03:08;;;;;;;28.57;18.73;;;;;;;-0.64;73.26;98379.13;1721845;83;22102;-81
2020/12/03 12:08:22;;;;;;;28.55;18.23;;;;;;;-0.59;73.36;98379.02;1722144;82;21061;-83
2020/12/03 12:13:35;;;;;;;28.07;18.42;;;;;;;-0.57;73.41;98387.75;1722000;83;21064;-82